Weather at Central Colorado Regional Airport

Public forecast

Using degrees Fahrenheit for public forecast. Weather courtesy of forecast.io.

Current aviation weather report (METAR) for Central Colorado Regional Airport

2024/07/21 13:15 (retrieved 27 minutes ago)

KAEJ 211315Z AUTO 10SM BKN033 OVC110 11/08 A3050 RMK AO2 T01130075

Closest aviation forecast (TAF) to Central Colorado Regional Airport

Closest forecast is Gunnison Crested Butte Regional Airport, 41.7 nm (77.2 km) WSW.

2024/07/21 12:42 (retrieved 60 minutes ago)

TAF KGUC 211140Z 2112/2212 36009KT P6SM SCT080 BKN150 FM211900 29009G18KT P6SM VCTS SCT080CB BKN100 FM212200 35012G20KT P6SM VCTS BKN100CB FM220100 07013G22KT P6SM FEW100 SCT120 FM220600 05007KT P6SM FEW070 FEW120